Time;durP1;ratioP1;P1;durP2;ratioP2;P2;SDS_P1;SDS_P2;PMS_P1;PMS_P2;Temp;Humidity;BMP_temperature;BMP_pressure;BME280_temperature;BME280_humidity;BME280_pressure;Samples;Min_cycle;Max_cycle;Signal;HPM_P1;HPM_P2
2021/05/16 00:00:13;;;;;;;5.97;4.58;;;;;;;12.75;78.33;99051.83;1743051;82;21021;-79
2021/05/16 00:02:39;;;;;;;6.80;4.35;;;;;;;12.74;78.33;99051.50;1735618;81;21400;-77
2021/05/16 00:05:08;;;;;;;6.20;4.12;;;;;;;12.73;78.34;99059.08;1739489;82;21114;-77
2021/05/16 00:07:35;;;;;;;6.30;4.17;;;;;;;12.71;78.03;99061.57;1747502;82;20986;-77
2021/05/16 00:10:01;;;;;;;5.50;4.22;;;;;;;12.72;78.62;99053.95;1741766;82;21039;-77
2021/05/16 00:12:27;;;;;;;5.45;4.17;;;;;;;12.71;79.14;99061.57;1747449;81;21014;-77
2021/05/16 00:14:53;;;;;;;6.17;4.67;;;;;;;12.68;78.87;99054.27;1737057;81;20993;-77
2021/05/16 00:17:19;;;;;;;6.78;4.62;;;;;;;12.67;79.67;99052.62;1749812;82;21072;-77
2021/05/16 00:19:46;;;;;;;7.65;5.17;;;;;;;12.65;79.69;99057.22;1737624;82;21690;-78
2021/05/16 00:22:13;;;;;;;7.67;5.85;;;;;;;12.65;79.79;99049.78;1733135;82;21701;-78
2021/05/16 00:24:39;;;;;;;8.00;5.42;;;;;;;12.61;79.56;99047.94;1744308;82;20981;-78
2021/05/16 00:27:06;;;;;;;6.65;5.20;;;;;;;12.61;79.86;99050.59;1743836;80;21619;-78
2021/05/16 00:29:32;;;;;;;6.85;4.72;;;;;;;12.61;79.52;99051.09;1741844;82;21112;-78
2021/05/16 00:31:57;;;;;;;6.00;4.92;;;;;;;12.60;79.85;99051.58;1744416;82;21036;-78
2021/05/16 00:34:23;;;;;;;7.25;5.80;;;;;;;12.60;79.82;99050.26;1739154;82;21004;-78
2021/05/16 00:36:49;;;;;;;7.33;5.47;;;;;;;12.60;79.95;99054.23;1733752;82;21001;-78
2021/05/16 00:39:15;;;;;;;8.15;5.95;;;;;;;12.60;80.12;99052.05;1736615;82;21578;-78
2021/05/16 00:41:41;;;;;;;6.75;5.92;;;;;;;12.59;80.15;99047.25;1742893;82;21025;-78
2021/05/16 00:44:08;;;;;;;8.20;6.47;;;;;;;12.59;80.58;99043.28;1742705;82;21052;-78
2021/05/16 00:46:35;;;;;;;8.83;6.60;;;;;;;12.57;80.59;99041.30;1745872;80;21017;-78
2021/05/16 00:49:01;;;;;;;8.58;7.28;;;;;;;12.55;80.88;99035.33;1743057;80;21539;-78
2021/05/16 00:51:28;;;;;;;9.35;6.92;;;;;;;12.55;81.12;99026.06;1744085;82;21028;-78
2021/05/16 00:53:54;;;;;;;9.63;7.17;;;;;;;12.52;80.85;99018.94;1741842;82;21017;-78
2021/05/16 00:56:20;;;;;;;11.45;6.87;;;;;;;12.49;80.85;99010.81;1745950;82;21544;-78
2021/05/16 00:58:47;;;;;;;8.55;6.28;;;;;;;12.49;80.37;99007.34;1749048;80;21043;-78
2021/05/16 01:01:15;;;;;;;9.83;7.30;;;;;;;12.50;80.65;99009.81;1742449;80;21062;-78
2021/05/16 01:03:40;;;;;;;8.55;7.15;;;;;;;12.50;80.52;99005.02;1735903;82;21084;-78
2021/05/16 01:06:06;;;;;;;9.68;6.58;;;;;;;12.50;80.50;99005.02;1735528;82;21551;-78
2021/05/16 01:08:32;;;;;;;8.98;6.97;;;;;;;12.49;80.50;99003.37;1749885;82;21037;-78
2021/05/16 01:10:58;;;;;;;11.83;6.83;;;;;;;12.49;80.63;99008.66;1738009;82;21030;-78
2021/05/16 01:13:26;;;;;;;7.25;6.42;;;;;;;12.47;80.85;99010.16;1739052;82;21033;-78
2021/05/16 01:15:53;;;;;;;7.45;6.28;;;;;;;12.46;80.93;99005.83;1741271;80;21071;-78
2021/05/16 01:18:20;;;;;;;10.18;6.97;;;;;;;12.45;81.13;99009.47;1733995;82;21021;-78
2021/05/16 01:20:49;;;;;;;8.40;6.90;;;;;;;12.43;80.64;99004.31;1745995;82;21052;-78
2021/05/16 01:23:27;;;;;;;7.03;6.12;;;;;;;12.42;80.82;99003.16;1733578;82;21037;-78
2021/05/16 01:25:50;;;;;;;9.03;7.25;;;;;;;12.40;80.78;99002.01;1733487;81;21028;-78
2021/05/16 01:28:18;;;;;;;8.90;6.78;;;;;;;12.39;80.82;98995.53;1745760;82;21052;-78
2021/05/16 01:30:46;;;;;;;9.23;6.80;;;;;;;12.38;80.95;98992.56;1739439;82;21044;-78
2021/05/16 01:33:13;;;;;;;7.47;6.22;;;;;;;12.36;81.09;98995.84;1736733;82;21033;-78
2021/05/16 01:35:40;;;;;;;7.12;6.42;;;;;;;12.33;81.24;98993.00;1741896;82;21017;-78
2021/05/16 01:38:07;;;;;;;12.35;7.53;;;;;;;12.31;81.35;98991.03;1737791;82;21010;-78
2021/05/16 01:40:35;;;;;;;10.15;7.30;;;;;;;12.31;81.41;98992.34;1737680;82;21025;-78
2021/05/16 01:43:01;;;;;;;8.18;6.87;;;;;;;12.30;81.38;98989.34;1750320;82;21016;-78
2021/05/16 01:45:29;;;;;;;11.08;7.83;;;;;;;12.29;81.62;98992.98;1750455;81;21064;-78
2021/05/16 01:47:57;;;;;;;9.68;7.80;;;;;;;12.28;81.70;98988.69;1758651;80;21466;-78
2021/05/16 01:50:30;;;;;;;10.50;7.70;;;;;;;12.26;81.71;98983.21;1780989;80;21605;-78
2021/05/16 01:52:56;;;;;;;10.32;8.78;;;;;;;12.25;81.84;98982.38;1749613;80;21512;-78
2021/05/16 01:55:23;;;;;;;11.25;8.28;;;;;;;12.24;82.01;98982.52;1737656;82;21059;-78
2021/05/16 01:57:50;;;;;;;8.78;6.55;;;;;;;12.23;81.89;98980.37;1737558;82;21004;-78
2021/05/16 02:00:30;;;;;;;9.78;6.70;;;;;;;12.23;81.98;98976.41;1737709;82;21040;-78
2021/05/16 02:02:57;;;;;;;9.53;6.58;;;;;;;12.22;81.92;98972.61;1737480;82;21046;-79
2021/05/16 02:05:23;;;;;;;8.80;7.10;;;;;;;12.21;81.96;98973.11;1737585;82;21572;-79
2021/05/16 02:07:50;;;;;;;7.75;6.33;;;;;;;12.20;82.03;98976.72;1737500;82;21027;-79
2021/05/16 02:10:18;;;;;;;8.05;6.40;;;;;;;12.19;82.02;98981.67;1737717;82;20988;-79
2021/05/16 02:12:44;;;;;;;8.68;6.42;;;;;;;12.17;82.15;98976.55;1759563;80;21023;-79
2021/05/16 02:15:12;;;;;;;7.30;6.45;;;;;;;12.17;82.43;98974.38;1775398;80;21094;-79
2021/05/16 02:17:41;;;;;;;7.45;6.65;;;;;;;12.15;82.48;98980.33;1737490;82;21023;-79
2021/05/16 02:20:14;;;;;;;8.35;6.62;;;;;;;12.12;82.64;98972.20;1737643;82;21526;-79
2021/05/16 02:22:40;;;;;;;9.40;6.70;;;;;;;12.12;82.71;98975.34;1737562;82;21012;-79
2021/05/16 02:25:08;;;;;;;7.97;7.17;;;;;;;12.10;82.97;98967.55;1737712;82;21004;-79
2021/05/16 02:27:35;;;;;;;9.98;7.45;;;;;;;12.08;82.98;98963.42;1737678;82;21517;-79
2021/05/16 02:30:08;;;;;;;8.98;6.28;;;;;;;12.06;83.06;98965.38;1737798;82;21518;-79
2021/05/16 02:32:39;;;;;;;7.30;5.72;;;;;;;12.03;83.18;98963.87;1737543;82;21035;-79
2021/05/16 02:35:14;;;;;;;9.70;7.00;;;;;;;12.03;83.14;98958.58;1737640;82;21034;-79
2021/05/16 02:37:37;;;;;;;10.15;6.45;;;;;;;12.02;83.14;98955.61;1735854;82;21399;-79
2021/05/16 02:40:05;;;;;;;8.48;6.85;;;;;;;12.02;83.25;98950.82;1737658;82;21026;-79
2021/05/16 02:42:32;;;;;;;6.80;6.10;;;;;;;12.01;83.39;98947.34;1737423;82;21070;-79
2021/05/16 02:44:58;;;;;;;8.55;5.92;;;;;;;12.02;83.19;98949.00;1737814;82;21365;-79
2021/05/16 02:47:25;;;;;;;6.30;5.58;;;;;;;12.01;83.10;98953.96;1737516;82;21012;-79
2021/05/16 02:49:51;;;;;;;6.45;5.58;;;;;;;11.99;83.20;98961.20;1737540;82;21482;-79
2021/05/16 02:52:17;;;;;;;6.15;5.28;;;;;;;11.97;83.24;98959.19;1737505;82;20991;-80
2021/05/16 02:54:43;;;;;;;6.70;5.17;;;;;;;11.97;83.22;98955.23;1737712;82;20987;-80
2021/05/16 02:57:10;;;;;;;7.25;5.00;;;;;;;11.96;83.29;98954.40;1737500;82;21466;-80
2021/05/16 02:59:36;;;;;;;6.58;4.75;;;;;;;11.95;83.46;98953.25;1774756;80;21020;-80
2021/05/16 03:02:02;;;;;;;7.20;5.03;;;;;;;11.93;83.49;98954.70;1780700;80;21893;-80
2021/05/16 03:04:28;;;;;;;6.30;4.62;;;;;;;11.93;83.19;98957.34;1780868;80;21010;-80
2021/05/16 03:06:54;;;;;;;6.22;4.67;;;;;;;11.91;83.22;98949.23;1780751;80;21105;-80
2021/05/16 03:09:20;;;;;;;6.15;4.62;;;;;;;11.89;83.21;98951.21;1780972;80;21030;-80
2021/05/16 03:11:46;;;;;;;6.10;4.83;;;;;;;11.86;83.15;98949.70;1780516;80;21026;-80
2021/05/16 03:14:12;;;;;;;7.62;5.03;;;;;;;11.84;83.10;98961.37;1780798;80;21145;-80
2021/05/16 03:16:38;;;;;;;7.12;5.22;;;;;;;11.82;83.15;98963.35;1780721;80;21055;-80
2021/05/16 03:19:04;;;;;;;6.00;5.15;;;;;;;11.79;83.26;98963.16;1780900;80;20975;-80
2021/05/16 03:21:30;;;;;;;9.38;5.62;;;;;;;11.77;83.45;98964.28;1780743;80;21011;-80
2021/05/16 03:23:56;;;;;;;6.00;5.40;;;;;;;11.73;83.31;98959.30;1780812;80;21545;-80
2021/05/16 03:26:24;;;;;;;8.13;5.45;;;;;;;11.70;83.25;98963.56;1769965;80;21012;-80
2021/05/16 03:28:50;;;;;;;6.53;5.30;;;;;;;11.69;83.42;98956.63;1749885;82;21045;-80
2021/05/16 03:31:17;;;;;;;6.70;5.00;;;;;;;11.66;83.53;98955.61;1720404;83;21112;-80
2021/05/16 03:33:43;;;;;;;7.55;5.33;;;;;;;11.66;83.38;98962.71;1720054;83;21068;-80
2021/05/16 03:36:09;;;;;;;6.08;4.65;;;;;;;11.62;83.27;98964.83;1720255;83;21048;-80
2021/05/16 03:38:35;;;;;;;6.53;4.62;;;;;;;11.61;83.27;98968.43;1720076;83;21000;-80
2021/05/16 03:41:01;;;;;;;6.70;5.20;;;;;;;11.58;83.23;98966.13;1720300;83;21067;-80
2021/05/16 03:43:27;;;;;;;6.12;5.50;;;;;;;11.55;83.33;98963.78;1720106;83;21072;-80
2021/05/16 03:45:53;;;;;;;5.85;4.47;;;;;;;11.53;83.35;98963.08;1727729;80;21026;-80
2021/05/16 03:48:20;;;;;;;6.97;5.47;;;;;;;11.50;83.50;98962.89;1749735;82;21026;-80
2021/05/16 03:50:46;;;;;;;5.90;4.90;;;;;;;11.49;83.58;98965.70;1749900;82;21054;-78
2021/05/16 03:53:12;;;;;;;6.75;5.03;;;;;;;11.46;83.36;98961.53;1749962;82;21532;-78
2021/05/16 03:55:38;;;;;;;5.78;5.20;;;;;;;11.46;83.36;98960.70;1749953;82;20987;-78
2021/05/16 03:58:04;;;;;;;7.05;5.28;;;;;;;11.46;83.90;98959.39;1755418;80;20995;-78
2021/05/16 04:00:30;;;;;;;8.18;5.80;;;;;;;11.43;83.80;98965.80;1780728;80;21099;-78
2021/05/16 04:02:56;;;;;;;7.97;5.83;;;;;;;11.44;84.23;98970.58;1780724;80;21039;-78
2021/05/16 04:05:22;;;;;;;7.20;5.90;;;;;;;11.42;84.08;98968.59;1780806;80;21514;-78
2021/05/16 04:07:49;;;;;;;5.30;4.80;;;;;;;11.41;84.08;98966.92;1780664;80;21023;-78
2021/05/16 04:10:15;;;;;;;6.67;4.87;;;;;;;11.40;84.25;98968.73;1780931;80;21561;-80
2021/05/16 04:12:42;;;;;;;6.00;4.55;;;;;;;11.38;84.33;98973.81;1780674;80;21069;-80
2021/05/16 04:15:09;;;;;;;5.67;4.55;;;;;;;11.37;84.47;98964.24;1781045;80;21528;-80
2021/05/16 04:17:35;;;;;;;5.37;4.45;;;;;;;11.37;84.68;98965.56;1744771;80;21047;-80
2021/05/16 04:20:02;;;;;;;7.20;4.97;;;;;;;11.36;84.39;98967.88;1738095;80;21015;-80
2021/05/16 04:22:28;;;;;;;5.30;4.78;;;;;;;11.36;84.58;98965.23;1737805;82;21082;-80
2021/05/16 04:24:54;;;;;;;8.18;5.17;;;;;;;11.36;84.57;98962.59;1738113;82;21007;-80
2021/05/16 04:27:20;;;;;;;7.15;4.55;;;;;;;11.36;84.66;98963.91;1737929;82;21031;-80
2021/05/16 04:29:46;;;;;;;7.45;3.95;;;;;;;11.34;84.60;98963.22;1738068;82;20979;-80
2021/05/16 04:32:12;;;;;;;4.78;3.65;;;;;;;11.35;84.73;98959.13;1770633;80;21123;-80
2021/05/16 04:34:38;;;;;;;5.33;3.92;;;;;;;11.37;84.69;98957.64;1781214;80;21046;-80
2021/05/16 04:37:04;;;;;;;5.85;4.25;;;;;;;11.38;84.87;98972.00;1781161;80;21613;-80
2021/05/16 04:39:30;;;;;;;4.92;4.40;;;;;;;11.41;84.47;98968.23;1781222;80;21019;-80
2021/05/16 04:41:56;;;;;;;5.95;4.62;;;;;;;11.41;84.47;98968.23;1781073;80;21620;-80
2021/05/16 04:44:22;;;;;;;8.28;6.03;;;;;;;11.42;84.86;98969.42;1781220;80;21070;-80
2021/05/16 04:46:48;;;;;;;6.53;5.42;;;;;;;11.44;85.09;98963.48;1781081;80;21678;-80
2021/05/16 04:49:15;;;;;;;4.65;3.92;;;;;;;11.44;85.03;98964.80;1781499;80;21031;-80
2021/05/16 04:51:41;;;;;;;4.78;4.28;;;;;;;11.47;85.07;98969.79;1780878;80;21058;-78
2021/05/16 04:54:07;;;;;;;5.00;3.42;;;;;;;11.49;85.03;98968.34;1781229;80;21521;-78
2021/05/16 04:56:33;;;;;;;4.75;3.30;;;;;;;11.51;85.15;98974.28;1781190;80;21019;-77
2021/05/16 04:59:00;;;;;;;5.10;3.22;;;;;;;11.51;85.31;98967.67;1781154;80;21015;-77
2021/05/16 05:01:27;;;;;;;4.72;3.35;;;;;;;11.51;85.21;98967.67;1781026;80;21051;-77
2021/05/16 05:03:55;;;;;;;4.42;2.65;;;;;;;11.54;85.36;98962.09;1765978;80;20996;-77
2021/05/16 05:06:22;;;;;;;3.65;2.90;;;;;;;11.57;85.55;98959.16;1753089;80;21027;-78
2021/05/16 05:08:48;;;;;;;4.30;2.67;;;;;;;11.60;85.77;98954.06;1780677;80;21039;-78
2021/05/16 05:11:14;;;;;;;3.70;2.27;;;;;;;11.64;85.63;98960.70;1781282;80;21061;-78
2021/05/16 05:13:40;;;;;;;4.20;3.08;;;;;;;11.66;85.45;98956.93;1781091;80;21177;-78
2021/05/16 05:16:07;;;;;;;4.50;3.22;;;;;;;11.68;85.39;98964.23;1768734;80;21554;-78
2021/05/16 05:18:33;;;;;;;2.80;2.50;;;;;;;11.72;85.62;98966.90;1737688;82;21000;-78
2021/05/16 05:21:02;;;;;;;3.67;2.70;;;;;;;11.74;85.60;98966.23;1737924;82;21525;-78
2021/05/16 05:23:28;;;;;;;3.25;2.40;;;;;;;11.78;85.77;98969.91;1737793;82;21034;-78
2021/05/16 05:25:57;;;;;;;3.80;2.58;;;;;;;11.79;85.65;98967.62;1737822;82;20948;-78
2021/05/16 05:28:23;;;;;;;4.47;2.12;;;;;;;11.80;85.61;98970.09;1737613;82;21070;-79
2021/05/16 05:30:50;;;;;;;2.42;1.87;;;;;;;11.82;85.85;98976.07;1737832;82;21055;-79
2021/05/16 05:33:18;;;;;;;2.30;1.70;;;;;;;11.83;85.86;98982.18;1737869;82;21031;-78
2021/05/16 05:35:44;;;;;;;2.85;2.05;;;;;;;11.86;85.58;98991.16;1738169;80;21581;-79
2021/05/16 05:38:10;;;;;;;3.27;1.90;;;;;;;11.88;85.65;98989.20;1781018;80;21035;-79
2021/05/16 05:40:36;;;;;;;6.12;2.02;;;;;;;11.91;85.84;98984.91;1781171;80;21581;-78
2021/05/16 05:43:02;;;;;;;2.33;1.50;;;;;;;11.95;85.83;98995.05;1781153;80;21031;-79
2021/05/16 05:45:28;;;;;;;1.90;1.42;;;;;;;11.95;85.35;98995.55;1781247;80;21039;-79
2021/05/16 05:47:54;;;;;;;4.10;2.20;;;;;;;11.96;85.32;98994.05;1780710;80;20992;-79
2021/05/16 05:50:21;;;;;;;4.00;1.52;;;;;;;11.96;85.36;98996.70;1781066;80;21031;-79
2021/05/16 05:52:47;;;;;;;2.00;1.37;;;;;;;11.99;85.20;98997.39;1781055;80;21011;-78
2021/05/16 05:55:13;;;;;;;2.02;1.35;;;;;;;12.01;85.17;99001.55;1781269;80;21012;-79
2021/05/16 05:57:39;;;;;;;2.35;1.80;;;;;;;12.03;84.98;98996.09;1778102;80;21046;-79
2021/05/16 06:00:07;;;;;;;4.05;1.42;;;;;;;12.05;85.27;98994.96;1780813;80;21039;-79
2021/05/16 06:02:33;;;;;;;3.40;1.67;;;;;;;12.07;85.35;98994.30;1780905;80;21002;-78
2021/05/16 06:04:59;;;;;;;3.83;1.95;;;;;;;12.10;84.64;98999.78;1781201;80;21019;-78
2021/05/16 06:07:25;;;;;;;3.90;1.67;;;;;;;12.11;84.21;98993.50;1748192;80;21536;-78
2021/05/16 06:09:51;;;;;;;2.92;1.40;;;;;;;12.11;84.54;98997.00;1768024;80;21030;-78
2021/05/16 06:12:17;;;;;;;2.20;1.20;;;;;;;12.17;84.85;99003.00;1750075;82;20991;-78
2021/05/16 06:14:43;;;;;;;4.78;3.85;;;;;;;12.23;84.53;99000.70;1750607;82;20975;-78
2021/05/16 06:17:08;;;;;;;1.47;1.30;;;;;;;12.29;84.61;98998.77;1744702;82;21596;-78
2021/05/16 06:19:35;;;;;;;3.67;1.15;;;;;;;12.33;83.97;99012.02;1733022;82;21052;-78
2021/05/16 06:22:02;;;;;;;2.75;1.57;;;;;;;12.35;83.46;99015.34;1743580;80;21068;-78
2021/05/16 06:24:28;;;;;;;4.80;1.70;;;;;;;12.36;82.88;99017.83;1742841;82;21016;-78
2021/05/16 06:26:54;;;;;;;2.30;1.27;;;;;;;12.41;83.30;99020.03;1739112;81;21003;-78
2021/05/16 06:29:20;;;;;;;3.35;1.50;;;;;;;12.45;83.28;99025.34;1737803;82;21095;-78
2021/05/16 06:31:46;;;;;;;1.77;1.10;;;;;;;12.52;82.94;99026.37;1732044;82;21581;-78
2021/05/16 06:34:12;;;;;;;2.72;1.35;;;;;;;12.56;82.32;99028.22;1732316;83;21067;-78
2021/05/16 06:36:39;;;;;;;1.40;0.82;;;;;;;12.61;82.19;99034.70;1732096;82;21039;-77
2021/05/16 06:39:07;;;;;;;2.25;1.25;;;;;;;12.65;81.77;99030.76;1733224;82;21039;-78
2021/05/16 06:41:35;;;;;;;2.02;1.20;;;;;;;12.67;81.46;99030.12;1740792;82;21665;-78
2021/05/16 06:44:01;;;;;;;4.55;1.17;;;;;;;12.72;81.97;99023.02;1749321;82;21554;-77
2021/05/16 06:46:27;;;;;;;1.95;1.75;;;;;;;12.79;81.54;99025.37;1749564;82;21011;-78
2021/05/16 06:48:54;;;;;;;1.67;1.02;;;;;;;12.85;82.11;99027.39;1749163;80;20979;-78
2021/05/16 06:51:22;;;;;;;2.17;1.05;;;;;;;12.91;81.25;99031.24;1737168;82;21026;-78
2021/05/16 06:53:48;;;;;;;3.62;1.10;;;;;;;12.94;81.01;99031.42;1737227;82;21504;-78
2021/05/16 06:56:15;;;;;;;2.30;0.88;;;;;;;12.97;81.12;99031.94;1739745;82;21012;-77
2021/05/16 06:58:42;;;;;;;1.62;0.75;;;;;;;13.02;81.02;99034.92;1740567;81;21399;-77
2021/05/16 07:01:09;;;;;;;2.33;1.02;;;;;;;13.06;81.12;99038.08;1740505;82;21350;-77
2021/05/16 07:03:38;;;;;;;0.90;0.75;;;;;;;13.07;80.26;99043.23;1740446;81;21019;-77
2021/05/16 07:06:05;;;;;;;1.52;1.05;;;;;;;13.07;79.84;99044.56;1740494;82;21044;-77
2021/05/16 07:08:33;;;;;;;1.92;1.00;;;;;;;13.06;79.85;99052.17;1740555;81;21039;-77
2021/05/16 07:11:01;;;;;;;1.90;1.10;;;;;;;13.07;79.66;99048.53;1740579;82;21568;-77
2021/05/16 07:13:27;;;;;;;1.92;0.90;;;;;;;13.07;79.52;99045.06;1736037;82;21458;-77
2021/05/16 07:15:53;;;;;;;1.45;0.75;;;;;;;13.06;79.60;99044.23;1769180;80;21046;-77
2021/05/16 07:18:19;;;;;;;1.47;0.80;;;;;;;13.06;79.32;99046.88;1719672;83;21005;-77
2021/05/16 07:20:45;;;;;;;1.22;0.80;;;;;;;13.07;80.02;99047.70;1719678;83;21013;-77
2021/05/16 07:23:11;;;;;;;1.60;0.80;;;;;;;13.06;80.09;99040.73;1719813;83;21124;-77
2021/05/16 07:25:38;;;;;;;2.27;1.07;;;;;;;13.09;80.17;99045.71;1719653;81;21064;-77
2021/05/16 07:28:04;;;;;;;1.37;1.10;;;;;;;13.09;79.50;99046.54;1742808;82;21028;-78
2021/05/16 07:30:30;;;;;;;1.47;0.70;;;;;;;13.08;79.36;99040.91;1734110;82;21637;-77
2021/05/16 07:32:56;;;;;;;3.67;1.10;;;;;;;13.08;79.32;99048.03;1746932;82;21025;-77
2021/05/16 07:35:22;;;;;;;1.60;0.90;;;;;;;13.07;79.59;99041.91;1743771;80;21492;-77
2021/05/16 07:37:48;;;;;;;2.08;1.17;;;;;;;13.10;79.58;99039.45;1738534;82;21291;-77
2021/05/16 07:40:15;;;;;;;1.55;0.88;;;;;;;13.11;79.45;99043.25;1737281;80;21015;-77
2021/05/16 07:42:41;;;;;;;1.52;1.00;;;;;;;13.13;79.32;99044.43;1724611;82;21042;-77
2021/05/16 07:45:09;;;;;;;0.98;0.70;;;;;;;13.14;79.11;99049.55;1739847;81;21063;-77
2021/05/16 07:47:35;;;;;;;2.87;1.07;;;;;;;13.15;79.04;99046.41;1744578;82;21036;-77
2021/05/16 07:50:01;;;;;;;1.07;0.82;;;;;;;13.15;78.79;99050.38;1746197;81;21029;-77
2021/05/16 07:52:27;;;;;;;1.72;1.10;;;;;;;13.15;78.70;99053.03;1729537;82;21057;-77
2021/05/16 07:54:53;;;;;;;0.90;0.78;;;;;;;13.14;78.62;99054.02;1738108;80;21036;-77
2021/05/16 07:57:19;;;;;;;0.65;0.60;;;;;;;13.14;78.40;99057.50;1742975;80;21617;-77
2021/05/16 07:59:45;;;;;;;3.00;0.90;;;;;;;13.17;78.80;99063.48;1739554;80;21041;-77
2021/05/16 08:02:11;;;;;;;1.40;0.90;;;;;;;13.15;78.34;99059.15;1740184;82;22298;-77
2021/05/16 08:04:37;;;;;;;2.22;1.00;;;;;;;13.19;78.62;99063.63;1745687;81;21063;-77
2021/05/16 08:07:03;;;;;;;8.00;3.25;;;;;;;13.19;77.77;99062.31;1726926;81;21088;-77
2021/05/16 08:09:29;;;;;;;1.60;1.00;;;;;;;13.19;77.63;99060.98;1742946;80;21138;-77
2021/05/16 08:11:55;;;;;;;1.82;0.70;;;;;;;13.20;77.73;99066.64;1745049;82;21594;-77
2021/05/16 08:14:21;;;;;;;1.35;0.70;;;;;;;13.18;76.26;99064.63;1734967;81;21506;-76
2021/05/16 08:16:47;;;;;;;2.22;1.47;;;;;;;13.18;77.01;99066.45;1741961;82;21038;-77
2021/05/16 08:19:13;;;;;;;2.72;0.75;;;;;;;13.19;77.11;99070.25;1742024;82;20993;-77
2021/05/16 08:21:40;;;;;;;4.50;0.80;;;;;;;13.17;76.65;99069.60;1735535;81;21012;-77
2021/05/16 08:24:08;;;;;;;2.22;0.70;;;;;;;13.18;76.94;99077.05;1738039;81;21027;-77
2021/05/16 08:26:35;;;;;;;1.30;0.72;;;;;;;13.20;76.21;99081.70;1735792;80;21067;-76
2021/05/16 08:29:01;;;;;;;2.52;0.57;;;;;;;13.20;76.32;99081.20;1726262;80;21131;-77
2021/05/16 08:31:28;;;;;;;1.72;0.80;;;;;;;13.21;76.50;99085.51;1750564;80;21519;-76
2021/05/16 08:33:54;;;;;;;2.47;0.85;;;;;;;13.23;75.91;99088.02;1739416;81;21056;-77
2021/05/16 08:36:20;;;;;;;2.50;1.17;;;;;;;13.25;76.00;99092.67;1744855;82;21072;-77
2021/05/16 08:38:46;;;;;;;1.50;0.80;;;;;;;13.29;76.44;99086.06;1737264;81;21638;-76
2021/05/16 08:41:12;;;;;;;1.77;0.88;;;;;;;13.33;75.81;99087.42;1731288;80;21099;-76
2021/05/16 08:43:39;;;;;;;1.50;0.80;;;;;;;13.36;76.30;99093.73;1734815;82;21049;-76
2021/05/16 08:46:09;;;;;;;3.55;0.80;;;;;;;13.38;75.67;99089.91;1730654;81;21008;-76
2021/05/16 08:48:38;;;;;;;0.88;0.60;;;;;;;13.41;75.12;99092.74;1729432;81;21041;-76
2021/05/16 08:51:05;;;;;;;1.02;0.75;;;;;;;13.44;75.44;99093.75;1727640;82;21031;-76
2021/05/16 08:53:31;;;;;;;2.10;1.12;;;;;;;13.46;75.72;99101.06;1730251;81;21033;-76
2021/05/16 08:55:58;;;;;;;1.67;0.98;;;;;;;13.51;76.03;99100.57;1711245;82;21628;-76
2021/05/16 08:58:24;;;;;;;2.17;0.62;;;;;;;13.53;75.75;99097.27;1745964;81;21115;-77
2021/05/16 09:00:50;;;;;;;1.62;0.78;;;;;;;13.54;75.18;99097.60;1724566;82;21029;-76
2021/05/16 09:03:18;;;;;;;0.95;0.80;;;;;;;13.54;75.09;99095.77;1727145;82;21064;-76
2021/05/16 09:05:52;;;;;;;0.70;0.62;;;;;;;13.54;75.57;99095.77;1729580;81;21060;-76
2021/05/16 09:08:22;;;;;;;0.90;0.65;;;;;;;13.55;75.35;99093.95;1735785;81;21693;-76
2021/05/16 09:10:59;;;;;;;1.98;0.78;;;;;;;13.53;75.62;99095.45;1743965;82;21060;-76
2021/05/16 09:13:40;;;;;;;2.30;1.47;;;;;;;13.56;75.35;99100.43;1739734;80;21056;-77
2021/05/16 09:16:15;;;;;;;2.10;0.80;;;;;;;13.55;75.18;99109.35;1743290;80;21103;-77
2021/05/16 09:18:48;;;;;;;7.70;2.83;;;;;;;13.55;74.47;99114.66;1726128;82;21035;-76
2021/05/16 09:21:31;;;;;;;2.33;0.90;;;;;;;13.52;75.35;99115.00;1739865;81;21064;-76
2021/05/16 09:24:06;;;;;;;1.07;0.62;;;;;;;13.53;75.43;99116.66;1739694;82;21112;-76
2021/05/16 09:26:37;;;;;;;3.98;1.30;;;;;;;13.54;75.46;99118.80;1746326;81;21066;-76
2021/05/16 09:29:32;;;;;;;4.12;1.82;;;;;;;13.54;74.97;99115.66;1747795;82;21009;-76
2021/05/16 09:32:01;;;;;;;2.58;1.52;;;;;;;13.54;75.37;99116.16;1745095;82;21071;-77
2021/05/16 09:34:30;;;;;;;1.52;0.80;;;;;;;13.56;75.04;99119.48;1727966;81;21008;-77
2021/05/16 09:36:56;;;;;;;0.98;0.68;;;;;;;13.57;75.18;99114.02;1721505;82;21049;-77
2021/05/16 09:39:27;;;;;;;1.77;0.75;;;;;;;13.62;74.99;99120.14;1734029;82;21031;-76
2021/05/16 09:42:13;;;;;;;8.93;5.78;;;;;;;13.67;75.51;99121.83;1749462;81;21645;-77
2021/05/16 09:44:50;;;;;;;2.33;1.42;;;;;;;13.73;75.36;99119.88;1719842;83;21161;-77
2021/05/16 09:47:27;;;;;;;1.30;0.93;;;;;;;13.75;74.67;99121.02;1738057;82;21000;-76
2021/05/16 09:49:59;;;;;;;2.40;1.15;;;;;;;13.77;75.20;99114.58;1742451;82;21007;-77
2021/05/16 09:52:34;;;;;;;1.42;0.93;;;;;;;13.80;74.83;99122.20;1743726;80;21022;-77
2021/05/16 09:55:10;;;;;;;1.17;0.80;;;;;;;13.83;74.58;99121.06;1737498;80;21011;-78
2021/05/16 09:57:43;;;;;;;1.92;0.78;;;;;;;13.88;75.42;99121.39;1737338;82;21039;-78
2021/05/16 10:00:12;;;;;;;1.57;0.70;;;;;;;13.93;74.40;99128.38;1737454;82;21015;-77
2021/05/16 10:02:40;;;;;;;3.33;1.07;;;;;;;13.97;74.61;99123.08;1737355;82;21421;-77
2021/05/16 10:05:09;;;;;;;2.42;1.45;;;;;;;14.07;75.10;99125.09;1776614;80;21069;-79
2021/05/16 10:07:41;;;;;;;1.57;1.17;;;;;;;14.19;74.95;99124.28;1780240;80;21050;-79
2021/05/16 10:10:11;;;;;;;2.02;1.10;;;;;;;14.34;75.09;99131.09;1752270;80;21098;-80
2021/05/16 10:12:37;;;;;;;1.75;1.00;;;;;;;14.44;73.75;99121.14;1749505;81;21039;-79
2021/05/16 10:15:20;;;;;;;1.07;0.95;;;;;;;14.49;73.83;99120.66;1722214;82;21052;-80
2021/05/16 10:17:53;;;;;;;;;;;;;;;14.46;73.25;99121.81;1741454;80;21122;-79
2021/05/16 10:20:26;;;;;;;1.47;0.95;;;;;;;14.43;72.82;99122.65;1737261;82;20272;-79
2021/05/16 10:22:58;;;;;;;3.05;1.32;;;;;;;14.39;73.94;99127.46;1736977;82;20987;-79
2021/05/16 10:25:42;;;;;;;1.80;1.00;;;;;;;14.42;73.79;99128.95;1737282;82;21067;-79
2021/05/16 10:28:16;;;;;;;2.17;1.12;;;;;;;14.45;73.79;99125.48;1737079;82;21644;-79
2021/05/16 10:31:06;;;;;;;2.12;1.45;;;;;;;14.46;73.71;99124.97;1737360;82;21063;-79
2021/05/16 10:33:35;;;;;;;2.00;1.30;;;;;;;14.45;73.51;99125.48;1737194;82;21548;-79
2021/05/16 10:36:01;;;;;;;1.72;1.45;;;;;;;14.44;73.90;99129.61;1736391;80;21016;-76
2021/05/16 10:38:40;;;;;;;2.35;1.20;;;;;;;14.44;73.10;99134.91;1730439;82;21062;-76
2021/05/16 10:41:25;;;;;;;1.47;0.90;;;;;;;14.43;73.43;99139.90;1736920;82;21071;-76
2021/05/16 10:43:51;;;;;;;1.10;0.82;;;;;;;14.41;73.28;99129.46;1740609;82;21051;-74
2021/05/16 10:46:42;;;;;;;2.58;1.52;;;;;;;14.42;73.00;99131.11;1738447;81;22333;-75
2021/05/16 10:49:27;;;;;;;1.98;1.00;;;;;;;14.47;73.28;99131.43;1743414;82;21061;-75
2021/05/16 10:51:54;;;;;;;1.22;0.80;;;;;;;14.54;73.17;99127.17;1749887;82;21086;-76
2021/05/16 10:54:33;;;;;;;3.77;0.72;;;;;;;14.61;72.20;99122.50;1741798;80;21577;-76
2021/05/16 10:57:15;;;;;;;2.00;0.68;;;;;;;14.74;72.88;99126.81;1737221;80;21030;-75
2021/05/16 10:59:43;;;;;;;1.67;0.72;;;;;;;14.99;72.36;99115.67;1737333;82;20996;-75
2021/05/16 11:02:09;;;;;;;1.70;0.90;;;;;;;15.17;71.63;99116.30;1736532;82;21071;-75
2021/05/16 11:04:50;;;;;;;1.65;0.88;;;;;;;15.40;72.16;99115.55;1737216;82;21086;-75
2021/05/16 11:07:36;;;;;;;2.55;0.70;;;;;;;15.60;70.81;99109.34;1748988;81;21020;-75
2021/05/16 11:10:29;;;;;;;2.22;0.55;;;;;;;15.73;70.64;99109.64;1739167;82;21081;-74
2021/05/16 11:13:17;;;;;;;1.42;0.75;;;;;;;15.92;69.92;99101.20;1731244;82;21059;-75
2021/05/16 11:15:53;;;;;;;0.72;0.70;;;;;;;16.19;70.51;99095.07;1739599;80;21077;-75
2021/05/16 11:18:22;;;;;;;0.42;0.40;;;;;;;16.39;69.73;99085.59;1737530;82;21340;-75
2021/05/16 11:20:54;;;;;;;0.50;0.20;;;;;;;16.55;69.02;99073.13;1732584;82;21091;-74
2021/05/16 11:23:29;;;;;;;;;;;;;;;16.72;66.19;99066.66;1742221;81;21523;-75
2021/05/16 11:26:01;;;;;;;0.80;0.50;;;;;;;16.82;66.94;99065.92;1748327;82;20217;-75
2021/05/16 11:28:32;;;;;;;0.70;0.30;;;;;;;16.94;65.66;99070.80;1726359;81;21106;-75
2021/05/16 11:30:59;;;;;;;2.87;0.62;;;;;;;17.01;66.37;99073.04;1747255;82;21043;-75
2021/05/16 11:33:32;;;;;;;0.80;0.60;;;;;;;17.11;66.44;99072.29;1742024;82;21034;-76
2021/05/16 11:36:08;;;;;;;0.70;0.30;;;;;;;17.17;65.79;99062.20;1748923;82;21043;-76
2021/05/16 11:38:41;;;;;;;0.88;0.45;;;;;;;17.29;65.18;99065.23;1744412;82;21036;-78